VOZ542 YBCG-YSSY
Flight info
| Callsign | VOZ542 |
|---|---|
| Flight time | 1h 11m |
| Altitude | 36000 |
| Route | GOMOL Q16 APAGI H91 IGDAM H652 BOREE |
| Aircraft | B738/M-SDE2E3FGHIRWXY/LB1 |
Departure
| Time | 2026-04-26 09:41 |
|---|---|
| Airport | Gold Coast Airport (YBCG) |
Arrival
| Time | 2026-04-26 10:52 |
|---|---|
| Airport | Sydney Kingsford Smith International Airport (YSSY) |
| Time | Latitude | Longitude | Altitude | Speed | Heading |
|---|---|---|---|---|---|
| 2026-04-26 09:31 | -28.16652 | 153.51161 | 25 ft | 0 kts | 60° |
| 2026-04-26 09:33 | -28.16653 | 153.51159 | 25 ft | 2 kts | 60° |
| 2026-04-26 09:33 | -28.16666 | 153.51134 | 27 ft | 4 kts | 58° |
| 2026-04-26 09:34 | -28.16679 | 153.51108 | 30 ft | 4 kts | 68° |
| 2026-04-26 09:34 | -28.16688 | 153.51080 | 30 ft | 4 kts | 59° |
| 2026-04-26 09:34 | -28.16704 | 153.51066 | 30 ft | 4 kts | 352° |
| 2026-04-26 09:34 | -28.16727 | 153.51076 | 26 ft | 2 kts | 330° |
| 2026-04-26 09:35 | -28.16728 | 153.51077 | 26 ft | 0 kts | 330° |
| 2026-04-26 09:36 | -28.16726 | 153.51076 | 26 ft | 2 kts | 330° |
| 2026-04-26 09:37 | -28.16692 | 153.51054 | 29 ft | 10 kts | 330° |
| 2026-04-26 09:37 | -28.16619 | 153.51007 | 26 ft | 13 kts | 330° |
| 2026-04-26 09:37 | -28.16542 | 153.50957 | 26 ft | 13 kts | 330° |
| 2026-04-26 09:37 | -28.16494 | 153.50885 | 27 ft | 12 kts | 264° |
| 2026-04-26 09:38 | -28.16488 | 153.50824 | 25 ft | 12 kts | 304° |
| 2026-04-26 09:38 | -28.16396 | 153.50757 | 28 ft | 12 kts | 327° |
| 2026-04-26 09:38 | -28.16324 | 153.50711 | 26 ft | 13 kts | 332° |
| 2026-04-26 09:38 | -28.16235 | 153.50656 | 28 ft | 16 kts | 331° |
| 2026-04-26 09:39 | -28.16163 | 153.50612 | 26 ft | 19 kts | 330° |
| 2026-04-26 09:39 | -28.16038 | 153.50532 | 26 ft | 22 kts | 330° |
| 2026-04-26 09:39 | -28.15900 | 153.50445 | 27 ft | 22 kts | 330° |
| 2026-04-26 09:39 | -28.15767 | 153.50359 | 26 ft | 22 kts | 330° |
| 2026-04-26 09:40 | -28.15637 | 153.50274 | 26 ft | 21 kts | 326° |
| 2026-04-26 09:40 | -28.15623 | 153.50150 | 27 ft | 13 kts | 248° |
| 2026-04-26 09:40 | -28.15675 | 153.50098 | 29 ft | 10 kts | 177° |
| 2026-04-26 09:40 | -28.15876 | 153.50218 | 29 ft | 69 kts | 152° |
| 2026-04-26 09:41 | -28.16521 | 153.50629 | 29 ft | 140 kts | 152° |
| 2026-04-26 09:41 | -28.17498 | 153.51247 | 410 ft | 167 kts | 154° |
| 2026-04-26 09:41 | -28.18417 | 153.51880 | 1661 ft | 141 kts | 147° |
| 2026-04-26 09:41 | -28.19257 | 153.52424 | 2468 ft | 145 kts | 150° |
| 2026-04-26 09:42 | -28.20288 | 153.52945 | 2828 ft | 179 kts | 158° |
| 2026-04-26 09:42 | -28.21562 | 153.53476 | 3087 ft | 209 kts | 159° |
| 2026-04-26 09:42 | -28.22995 | 153.54069 | 3489 ft | 225 kts | 158° |
| 2026-04-26 09:42 | -28.24564 | 153.54623 | 3895 ft | 249 kts | 172° |
| 2026-04-26 09:43 | -28.26315 | 153.54358 | 4649 ft | 263 kts | 200° |
| 2026-04-26 09:43 | -28.27805 | 153.53156 | 5538 ft | 272 kts | 224° |
| 2026-04-26 09:43 | -28.29011 | 153.51455 | 6394 ft | 280 kts | 231° |
| 2026-04-26 09:43 | -28.30128 | 153.49617 | 7204 ft | 285 kts | 233° |
| 2026-04-26 09:44 | -28.31231 | 153.47737 | 8052 ft | 288 kts | 234° |
| 2026-04-26 09:44 | -28.32349 | 153.45830 | 8898 ft | 292 kts | 233° |
| 2026-04-26 09:44 | -28.33491 | 153.43898 | 9745 ft | 296 kts | 233° |
| 2026-04-26 09:44 | -28.34642 | 153.41966 | 10445 ft | 305 kts | 233° |
| 2026-04-26 09:45 | -28.35890 | 153.39891 | 10649 ft | 331 kts | 233° |
| 2026-04-26 09:45 | -28.37239 | 153.37657 | 10861 ft | 354 kts | 233° |
| 2026-04-26 09:45 | -28.38665 | 153.35298 | 11336 ft | 366 kts | 234° |
| 2026-04-26 09:45 | -28.40120 | 153.32893 | 12084 ft | 369 kts | 234° |
| 2026-04-26 09:46 | -28.41571 | 153.30496 | 12849 ft | 373 kts | 234° |
| 2026-04-26 09:46 | -28.43054 | 153.28049 | 13578 ft | 377 kts | 234° |
| 2026-04-26 09:46 | -28.44553 | 153.25574 | 14278 ft | 382 kts | 234° |
| 2026-04-26 09:46 | -28.46067 | 153.23077 | 14956 ft | 385 kts | 234° |
| 2026-04-26 09:47 | -28.47590 | 153.20561 | 15632 ft | 388 kts | 234° |
| 2026-04-26 09:47 | -28.49130 | 153.18019 | 16312 ft | 390 kts | 234° |
| 2026-04-26 09:47 | -28.50663 | 153.15485 | 16965 ft | 394 kts | 234° |
| 2026-04-26 09:47 | -28.52220 | 153.12911 | 17602 ft | 397 kts | 234° |
| 2026-04-26 09:48 | -28.53798 | 153.10301 | 18251 ft | 401 kts | 234° |
| 2026-04-26 09:48 | -28.55371 | 153.07697 | 18827 ft | 404 kts | 234° |
| 2026-04-26 09:48 | -28.56974 | 153.05042 | 19413 ft | 406 kts | 234° |
| 2026-04-26 09:48 | -28.58576 | 153.02386 | 20014 ft | 407 kts | 234° |
| 2026-04-26 09:49 | -28.60187 | 152.99716 | 20598 ft | 409 kts | 234° |
| 2026-04-26 09:49 | -28.61781 | 152.97071 | 21150 ft | 412 kts | 234° |
| 2026-04-26 09:49 | -28.63406 | 152.94372 | 21700 ft | 414 kts | 234° |
| 2026-04-26 09:49 | -28.65045 | 152.91648 | 22244 ft | 416 kts | 234° |
| 2026-04-26 09:50 | -28.66686 | 152.88920 | 22774 ft | 418 kts | 234° |
| 2026-04-26 09:50 | -28.68334 | 152.86179 | 23288 ft | 420 kts | 234° |
| 2026-04-26 09:50 | -28.69972 | 152.83451 | 23775 ft | 423 kts | 234° |
| 2026-04-26 09:50 | -28.71644 | 152.80667 | 24185 ft | 425 kts | 234° |
| 2026-04-26 09:51 | -28.73314 | 152.77882 | 24618 ft | 426 kts | 234° |
| 2026-04-26 09:51 | -28.74991 | 152.75084 | 25061 ft | 427 kts | 234° |
| 2026-04-26 09:51 | -28.76676 | 152.72271 | 25478 ft | 429 kts | 234° |
| 2026-04-26 09:51 | -28.78361 | 152.69455 | 25890 ft | 430 kts | 234° |
| 2026-04-26 09:52 | -28.80029 | 152.66667 | 26280 ft | 431 kts | 234° |
| 2026-04-26 09:52 | -28.83433 | 152.60976 | 27045 ft | 434 kts | 234° |
| 2026-04-26 09:52 | -28.85429 | 152.58399 | 27384 ft | 435 kts | 219° |
| 2026-04-26 09:53 | -28.87933 | 152.56539 | 27750 ft | 435 kts | 208° |
| 2026-04-26 09:53 | -28.90635 | 152.54929 | 28115 ft | 437 kts | 207° |
| 2026-04-26 09:53 | -28.93356 | 152.53362 | 28421 ft | 439 kts | 207° |
| 2026-04-26 09:53 | -28.96091 | 152.51792 | 28718 ft | 441 kts | 207° |
| 2026-04-26 09:54 | -28.98843 | 152.50199 | 29026 ft | 443 kts | 208° |
| 2026-04-26 09:54 | -29.01564 | 152.48608 | 29333 ft | 445 kts | 208° |
| 2026-04-26 09:54 | -29.04330 | 152.46974 | 29651 ft | 446 kts | 208° |
| 2026-04-26 09:54 | -29.07083 | 152.45339 | 30092 ft | 445 kts | 208° |
| 2026-04-26 09:55 | -29.09822 | 152.43707 | 30573 ft | 441 kts | 208° |
| 2026-04-26 09:55 | -29.12510 | 152.42103 | 30946 ft | 440 kts | 209° |
| 2026-04-26 09:55 | -29.15224 | 152.40481 | 31245 ft | 440 kts | 209° |
| 2026-04-26 09:55 | -29.17955 | 152.38848 | 31557 ft | 440 kts | 209° |
| 2026-04-26 09:56 | -29.20675 | 152.37221 | 31913 ft | 439 kts | 209° |
| 2026-04-26 09:56 | -29.23381 | 152.35602 | 32261 ft | 438 kts | 209° |
| 2026-04-26 09:56 | -29.26050 | 152.34005 | 32583 ft | 437 kts | 209° |
| 2026-04-26 09:56 | -29.28748 | 152.32389 | 32892 ft | 437 kts | 209° |
| 2026-04-26 09:57 | -29.31448 | 152.30771 | 33224 ft | 436 kts | 209° |
| 2026-04-26 09:57 | -29.34133 | 152.29162 | 33580 ft | 435 kts | 209° |
| 2026-04-26 09:57 | -29.36812 | 152.27555 | 33908 ft | 434 kts | 209° |
| 2026-04-26 09:57 | -29.39490 | 152.25947 | 34241 ft | 433 kts | 210° |
| 2026-04-26 09:58 | -29.42156 | 152.24346 | 34532 ft | 432 kts | 210° |
| 2026-04-26 09:58 | -29.44818 | 152.22746 | 34751 ft | 433 kts | 210° |
| 2026-04-26 09:58 | -29.47468 | 152.21152 | 34908 ft | 435 kts | 210° |
| 2026-04-26 09:58 | -29.50156 | 152.19534 | 35124 ft | 435 kts | 210° |
| 2026-04-26 09:59 | -29.52839 | 152.17919 | 35385 ft | 434 kts | 210° |
| 2026-04-26 09:59 | -29.55511 | 152.16309 | 35613 ft | 434 kts | 210° |
| 2026-04-26 09:59 | -29.58162 | 152.14710 | 35810 ft | 435 kts | 210° |
| 2026-04-26 09:59 | -29.60844 | 152.13092 | 36029 ft | 435 kts | 210° |
| 2026-04-26 10:00 | -29.63525 | 152.11474 | 36265 ft | 434 kts | 210° |
| 2026-04-26 10:00 | -29.66218 | 152.09848 | 36271 ft | 438 kts | 210° |
| 2026-04-26 10:00 | -29.71743 | 152.06991 | 36287 ft | 438 kts | 198° |
| 2026-04-26 10:01 | -29.77673 | 152.05415 | 36292 ft | 437 kts | 194° |
| 2026-04-26 10:01 | -29.83621 | 152.03940 | 36293 ft | 435 kts | 194° |
| 2026-04-26 10:02 | -29.89540 | 152.02428 | 36296 ft | 435 kts | 194° |
| 2026-04-26 10:02 | -29.95419 | 152.00895 | 36302 ft | 434 kts | 195° |
| 2026-04-26 10:03 | -30.01330 | 151.99345 | 36301 ft | 435 kts | 194° |
| 2026-04-26 10:03 | -30.07202 | 151.97804 | 36303 ft | 435 kts | 194° |
| 2026-04-26 10:04 | -30.13129 | 151.96247 | 36303 ft | 436 kts | 194° |
| 2026-04-26 10:04 | -30.19026 | 151.94697 | 36306 ft | 437 kts | 194° |
| 2026-04-26 10:05 | -30.24978 | 151.93131 | 36304 ft | 437 kts | 194° |
| 2026-04-26 10:05 | -30.30888 | 151.91573 | 36304 ft | 438 kts | 194° |
| 2026-04-26 10:06 | -30.36650 | 151.89306 | 36304 ft | 436 kts | 203° |
| 2026-04-26 10:06 | -30.42282 | 151.86628 | 36299 ft | 437 kts | 203° |
| 2026-04-26 10:07 | -30.47882 | 151.83966 | 36302 ft | 437 kts | 203° |
| 2026-04-26 10:07 | -30.53520 | 151.81317 | 36300 ft | 437 kts | 202° |
| 2026-04-26 10:08 | -30.59183 | 151.78669 | 36296 ft | 437 kts | 202° |
| 2026-04-26 10:08 | -30.64789 | 151.76048 | 36295 ft | 437 kts | 202° |
| 2026-04-26 10:09 | -30.70430 | 151.73406 | 36294 ft | 437 kts | 202° |
| 2026-04-26 10:09 | -30.76063 | 151.70764 | 36292 ft | 436 kts | 202° |
| 2026-04-26 10:10 | -30.81672 | 151.68130 | 36291 ft | 436 kts | 202° |
| 2026-04-26 10:10 | -30.87293 | 151.65486 | 36297 ft | 436 kts | 202° |
| 2026-04-26 10:11 | -30.92923 | 151.62836 | 36295 ft | 435 kts | 202° |
| 2026-04-26 10:11 | -30.98512 | 151.60201 | 36295 ft | 435 kts | 202° |
| 2026-04-26 10:12 | -31.04133 | 151.57547 | 36295 ft | 435 kts | 202° |
| 2026-04-26 10:12 | -31.09755 | 151.54890 | 36306 ft | 435 kts | 202° |
| 2026-04-26 10:13 | -31.15334 | 151.52250 | 36293 ft | 435 kts | 202° |
| 2026-04-26 10:13 | -31.20772 | 151.49672 | 36295 ft | 435 kts | 202° |
| 2026-04-26 10:14 | -31.26323 | 151.47039 | 36294 ft | 435 kts | 202° |
| 2026-04-26 10:14 | -31.31954 | 151.44363 | 36292 ft | 435 kts | 202° |
| 2026-04-26 10:15 | -31.37543 | 151.41705 | 36296 ft | 435 kts | 202° |
| 2026-04-26 10:15 | -31.43195 | 151.39105 | 36293 ft | 436 kts | 201° |
| 2026-04-26 10:16 | -31.48875 | 151.36600 | 36288 ft | 436 kts | 200° |
| 2026-04-26 10:16 | -31.54546 | 151.34090 | 36292 ft | 436 kts | 200° |
| 2026-04-26 10:17 | -31.60233 | 151.31554 | 36282 ft | 437 kts | 201° |
| 2026-04-26 10:17 | -31.65892 | 151.29021 | 36287 ft | 437 kts | 201° |
| 2026-04-26 10:18 | -31.71578 | 151.26473 | 36285 ft | 437 kts | 201° |
| 2026-04-26 10:18 | -31.77237 | 151.23934 | 36278 ft | 437 kts | 201° |
| 2026-04-26 10:19 | -31.82931 | 151.21375 | 36286 ft | 437 kts | 201° |
| 2026-04-26 10:19 | -31.88620 | 151.18815 | 36275 ft | 437 kts | 201° |
| 2026-04-26 10:20 | -31.93339 | 151.16690 | 36280 ft | 437 kts | 200° |
| 2026-04-26 10:20 | -31.99958 | 151.13719 | 36268 ft | 437 kts | 200° |
| 2026-04-26 10:21 | -32.05677 | 151.11157 | 35756 ft | 444 kts | 200° |
| 2026-04-26 10:21 | -32.08528 | 151.09877 | 35163 ft | 443 kts | 200° |
| 2026-04-26 10:21 | -32.11415 | 151.08581 | 34533 ft | 443 kts | 200° |
| 2026-04-26 10:22 | -32.14300 | 151.07284 | 33819 ft | 443 kts | 200° |
| 2026-04-26 10:22 | -32.17181 | 151.05987 | 33269 ft | 440 kts | 200° |
| 2026-04-26 10:22 | -32.20009 | 151.04713 | 32768 ft | 436 kts | 200° |
| 2026-04-26 10:22 | -32.22836 | 151.03440 | 32286 ft | 431 kts | 200° |
| 2026-04-26 10:23 | -32.25635 | 151.02177 | 31815 ft | 427 kts | 200° |
| 2026-04-26 10:23 | -32.28407 | 151.00927 | 31347 ft | 424 kts | 200° |
| 2026-04-26 10:23 | -32.31153 | 150.99686 | 30888 ft | 420 kts | 200° |
| 2026-04-26 10:23 | -32.33841 | 150.98472 | 30443 ft | 417 kts | 200° |
| 2026-04-26 10:24 | -32.36548 | 150.97248 | 29925 ft | 414 kts | 200° |
| 2026-04-26 10:24 | -32.39231 | 150.96034 | 29413 ft | 410 kts | 200° |
| 2026-04-26 10:24 | -32.41886 | 150.94833 | 28940 ft | 405 kts | 200° |
| 2026-04-26 10:24 | -32.44481 | 150.93658 | 28487 ft | 401 kts | 199° |
| 2026-04-26 10:25 | -32.47088 | 150.92524 | 28012 ft | 397 kts | 195° |
| 2026-04-26 10:25 | -32.49782 | 150.91871 | 27571 ft | 392 kts | 185° |
| 2026-04-26 10:25 | -32.52494 | 150.91702 | 27095 ft | 388 kts | 177° |
| 2026-04-26 10:25 | -32.55172 | 150.92040 | 26651 ft | 385 kts | 171° |
| 2026-04-26 10:26 | -32.57784 | 150.92523 | 26194 ft | 382 kts | 170° |
| 2026-04-26 10:26 | -32.60412 | 150.93031 | 25754 ft | 380 kts | 169° |
| 2026-04-26 10:26 | -32.63026 | 150.93530 | 25313 ft | 379 kts | 170° |
| 2026-04-26 10:26 | -32.65627 | 150.94015 | 24879 ft | 377 kts | 170° |
| 2026-04-26 10:27 | -32.68215 | 150.94488 | 24447 ft | 375 kts | 170° |
| 2026-04-26 10:27 | -32.70792 | 150.94955 | 24008 ft | 374 kts | 170° |
| 2026-04-26 10:27 | -32.72498 | 150.95263 | 23675 ft | 374 kts | 170° |
| 2026-04-26 10:27 | -32.75899 | 150.95876 | 23037 ft | 371 kts | 170° |
| 2026-04-26 10:28 | -32.78442 | 150.96334 | 22591 ft | 368 kts | 170° |
| 2026-04-26 10:28 | -32.80984 | 150.96790 | 22093 ft | 367 kts | 170° |
| 2026-04-26 10:28 | -32.83504 | 150.97237 | 21644 ft | 365 kts | 170° |
| 2026-04-26 10:28 | -32.85169 | 150.97532 | 21359 ft | 364 kts | 170° |
| 2026-04-26 10:29 | -32.87663 | 150.97973 | 20935 ft | 361 kts | 170° |
| 2026-04-26 10:29 | -32.90146 | 150.98413 | 20517 ft | 359 kts | 170° |
| 2026-04-26 10:29 | -32.92623 | 150.98853 | 20098 ft | 357 kts | 170° |
| 2026-04-26 10:29 | -32.95078 | 150.99289 | 19691 ft | 355 kts | 170° |
| 2026-04-26 10:30 | -32.97490 | 150.99719 | 19288 ft | 354 kts | 170° |
| 2026-04-26 10:30 | -32.99923 | 151.00152 | 18878 ft | 352 kts | 170° |
| 2026-04-26 10:30 | -33.02343 | 151.00583 | 18446 ft | 351 kts | 170° |
| 2026-04-26 10:30 | -33.04760 | 151.01014 | 17985 ft | 349 kts | 170° |
| 2026-04-26 10:31 | -33.07162 | 151.01442 | 17554 ft | 347 kts | 170° |
| 2026-04-26 10:31 | -33.09514 | 151.01862 | 17144 ft | 345 kts | 170° |
| 2026-04-26 10:31 | -33.11879 | 151.02285 | 16739 ft | 342 kts | 170° |
| 2026-04-26 10:31 | -33.14235 | 151.02706 | 16331 ft | 340 kts | 170° |
| 2026-04-26 10:32 | -33.16578 | 151.03125 | 15937 ft | 338 kts | 170° |
| 2026-04-26 10:32 | -33.18906 | 151.03541 | 15538 ft | 336 kts | 170° |
| 2026-04-26 10:32 | -33.21216 | 151.03954 | 15149 ft | 335 kts | 170° |
| 2026-04-26 10:32 | -33.23490 | 151.04361 | 14761 ft | 333 kts | 171° |
| 2026-04-26 10:33 | -33.25787 | 151.04788 | 14311 ft | 334 kts | 170° |
| 2026-04-26 10:33 | -33.28077 | 151.05228 | 13908 ft | 332 kts | 170° |
| 2026-04-26 10:33 | -33.30358 | 151.05668 | 13482 ft | 331 kts | 170° |
| 2026-04-26 10:33 | -33.32622 | 151.06104 | 13082 ft | 329 kts | 170° |
| 2026-04-26 10:34 | -33.34878 | 151.06536 | 12680 ft | 326 kts | 170° |
| 2026-04-26 10:34 | -33.37090 | 151.06959 | 12293 ft | 324 kts | 170° |
| 2026-04-26 10:34 | -33.39312 | 151.07385 | 11911 ft | 322 kts | 169° |
| 2026-04-26 10:34 | -33.41529 | 151.07811 | 11534 ft | 320 kts | 169° |
| 2026-04-26 10:35 | -33.43732 | 151.08234 | 11140 ft | 319 kts | 169° |
| 2026-04-26 10:35 | -33.45914 | 151.08653 | 10839 ft | 314 kts | 169° |
| 2026-04-26 10:35 | -33.48019 | 151.09057 | 10709 ft | 305 kts | 169° |
| 2026-04-26 10:35 | -33.50102 | 151.09457 | 10469 ft | 300 kts | 169° |
| 2026-04-26 10:36 | -33.52161 | 151.09854 | 10220 ft | 296 kts | 169° |
| 2026-04-26 10:36 | -33.54156 | 151.10238 | 10043 ft | 288 kts | 169° |
| 2026-04-26 10:36 | -33.56123 | 151.10617 | 9757 ft | 286 kts | 169° |
| 2026-04-26 10:36 | -33.58086 | 151.10996 | 9456 ft | 284 kts | 169° |
| 2026-04-26 10:37 | -33.60035 | 151.11372 | 9150 ft | 282 kts | 169° |
| 2026-04-26 10:37 | -33.61960 | 151.11744 | 8936 ft | 277 kts | 169° |
| 2026-04-26 10:37 | -33.63838 | 151.12114 | 8790 ft | 270 kts | 169° |
| 2026-04-26 10:37 | -33.65661 | 151.12475 | 8659 ft | 267 kts | 169° |
| 2026-04-26 10:38 | -33.67503 | 151.12839 | 8523 ft | 267 kts | 169° |
| 2026-04-26 10:38 | -33.69339 | 151.13233 | 8385 ft | 268 kts | 162° |
| 2026-04-26 10:38 | -33.70959 | 151.14303 | 8246 ft | 266 kts | 138° |
| 2026-04-26 10:38 | -33.72254 | 151.15845 | 8122 ft | 265 kts | 133° |
| 2026-04-26 10:39 | -33.73528 | 151.17455 | 7982 ft | 265 kts | 133° |
| 2026-04-26 10:39 | -33.74801 | 151.19070 | 7843 ft | 266 kts | 133° |
| 2026-04-26 10:39 | -33.76085 | 151.20687 | 7701 ft | 267 kts | 133° |
| 2026-04-26 10:39 | -33.77358 | 151.22279 | 7567 ft | 268 kts | 133° |
| 2026-04-26 10:40 | -33.78657 | 151.23897 | 7414 ft | 269 kts | 133° |
| 2026-04-26 10:40 | -33.79956 | 151.25514 | 7293 ft | 269 kts | 134° |
| 2026-04-26 10:40 | -33.81257 | 151.27132 | 7149 ft | 268 kts | 134° |
| 2026-04-26 10:40 | -33.82625 | 151.28649 | 6991 ft | 268 kts | 148° |
| 2026-04-26 10:41 | -33.84347 | 151.29463 | 6874 ft | 266 kts | 166° |
| 2026-04-26 10:41 | -33.86151 | 151.29926 | 6738 ft | 264 kts | 167° |
| 2026-04-26 10:41 | -33.87923 | 151.30360 | 6596 ft | 262 kts | 168° |
| 2026-04-26 10:41 | -33.89711 | 151.30807 | 6452 ft | 261 kts | 167° |
| 2026-04-26 10:42 | -33.91485 | 151.31261 | 6316 ft | 260 kts | 167° |
| 2026-04-26 10:42 | -33.93258 | 151.31721 | 6177 ft | 259 kts | 167° |
| 2026-04-26 10:42 | -33.95010 | 151.32177 | 6044 ft | 259 kts | 167° |
| 2026-04-26 10:42 | -33.96782 | 151.32640 | 5872 ft | 260 kts | 167° |
| 2026-04-26 10:43 | -33.98560 | 151.33105 | 5697 ft | 262 kts | 167° |
| 2026-04-26 10:43 | -34.00347 | 151.33573 | 5524 ft | 264 kts | 167° |
| 2026-04-26 10:43 | -34.02149 | 151.34044 | 5331 ft | 265 kts | 167° |
| 2026-04-26 10:43 | -34.03930 | 151.34511 | 5173 ft | 261 kts | 167° |
| 2026-04-26 10:44 | -34.05657 | 151.34964 | 5097 ft | 245 kts | 167° |
| 2026-04-26 10:44 | -34.07279 | 151.35389 | 4985 ft | 231 kts | 167° |
| 2026-04-26 10:44 | -34.08793 | 151.35786 | 4876 ft | 219 kts | 167° |
| 2026-04-26 10:44 | -34.10247 | 151.36167 | 4645 ft | 213 kts | 167° |
| 2026-04-26 10:45 | -34.11694 | 151.36546 | 4386 ft | 209 kts | 167° |
| 2026-04-26 10:45 | -34.13101 | 151.36916 | 4188 ft | 203 kts | 167° |
| 2026-04-26 10:45 | -34.14473 | 151.37276 | 4055 ft | 202 kts | 166° |
| 2026-04-26 10:45 | -34.15897 | 151.37290 | 3792 ft | 211 kts | 201° |
| 2026-04-26 10:46 | -34.17025 | 151.36227 | 3652 ft | 207 kts | 241° |
| 2026-04-26 10:46 | -34.17361 | 151.34605 | 3496 ft | 203 kts | 279° |
| 2026-04-26 10:46 | -34.16845 | 151.33047 | 3354 ft | 197 kts | 307° |
| 2026-04-26 10:46 | -34.16032 | 151.31735 | 3208 ft | 199 kts | 311° |
| 2026-04-26 10:47 | -34.15168 | 151.30415 | 3031 ft | 198 kts | 311° |
| 2026-04-26 10:47 | -34.14329 | 151.29123 | 2872 ft | 194 kts | 311° |
| 2026-04-26 10:47 | -34.13504 | 151.27847 | 2719 ft | 192 kts | 311° |
| 2026-04-26 10:47 | -34.12697 | 151.26591 | 2595 ft | 186 kts | 312° |
| 2026-04-26 10:48 | -34.11928 | 151.25395 | 2443 ft | 177 kts | 312° |
| 2026-04-26 10:48 | -34.11193 | 151.24248 | 2336 ft | 169 kts | 312° |
| 2026-04-26 10:48 | -34.10452 | 151.23181 | 2214 ft | 165 kts | 326° |
| 2026-04-26 10:48 | -34.09467 | 151.22651 | 2102 ft | 151 kts | 349° |
| 2026-04-26 10:49 | -34.08452 | 151.22384 | 1983 ft | 149 kts | 350° |
| 2026-04-26 10:49 | -34.07450 | 151.22112 | 1866 ft | 145 kts | 349° |
| 2026-04-26 10:49 | -34.06477 | 151.21851 | 1754 ft | 143 kts | 351° |
| 2026-04-26 10:49 | -34.05505 | 151.21594 | 1638 ft | 144 kts | 350° |
| 2026-04-26 10:50 | -34.04526 | 151.21331 | 1461 ft | 143 kts | 351° |
| 2026-04-26 10:50 | -34.03875 | 151.21158 | 1316 ft | 142 kts | 352° |
| 2026-04-26 10:50 | -34.02604 | 151.20823 | 1120 ft | 140 kts | 350° |
| 2026-04-26 10:50 | -34.01664 | 151.20576 | 935 ft | 136 kts | 352° |
| 2026-04-26 10:51 | -34.00745 | 151.20338 | 793 ft | 138 kts | 351° |
| 2026-04-26 10:51 | -33.98831 | 151.19840 | 546 ft | 141 kts | 349° |
| 2026-04-26 10:51 | -33.97885 | 151.19591 | 300 ft | 142 kts | 349° |
| 2026-04-26 10:52 | -33.96954 | 151.19342 | 50 ft | 132 kts | 349° |
| 2026-04-26 10:52 | -33.96167 | 151.19140 | 27 ft | 89 kts | 348° |
| 2026-04-26 10:52 | -33.95767 | 151.19035 | 28 ft | 30 kts | 348° |
| 2026-04-26 10:52 | -33.95575 | 151.18984 | 26 ft | 28 kts | 349° |
| 2026-04-26 10:53 | -33.95397 | 151.18911 | 24 ft | 26 kts | 335° |
| 2026-04-26 10:53 | -33.95249 | 151.18800 | 27 ft | 24 kts | 321° |
| 2026-04-26 10:53 | -33.95126 | 151.18670 | 29 ft | 22 kts | 317° |
| 2026-04-26 10:54 | -33.95134 | 151.18334 | 29 ft | 21 kts | 258° |
| 2026-04-26 10:54 | -33.95163 | 151.18169 | 29 ft | 20 kts | 258° |
| 2026-04-26 10:54 | -33.95158 | 151.18057 | 28 ft | 13 kts | 309° |
| 2026-04-26 10:54 | -33.95069 | 151.18020 | 29 ft | 16 kts | 348° |
| 2026-04-26 10:55 | -33.94934 | 151.17987 | 29 ft | 23 kts | 347° |
| 2026-04-26 10:55 | -33.94757 | 151.17942 | 29 ft | 28 kts | 348° |
| 2026-04-26 10:55 | -33.94572 | 151.17893 | 29 ft | 23 kts | 348° |
| 2026-04-26 10:55 | -33.94416 | 151.17906 | 29 ft | 22 kts | 359° |
| 2026-04-26 10:56 | -33.94265 | 151.17874 | 29 ft | 22 kts | 348° |
| 2026-04-26 10:56 | -33.94120 | 151.17833 | 28 ft | 21 kts | 347° |
| 2026-04-26 10:56 | -33.93978 | 151.17798 | 28 ft | 20 kts | 348° |
| 2026-04-26 10:56 | -33.93846 | 151.17784 | 29 ft | 18 kts | 34° |
| 2026-04-26 10:57 | -33.93805 | 151.17918 | 29 ft | 17 kts | 75° |
| 2026-04-26 10:57 | -33.93774 | 151.18040 | 29 ft | 11 kts | 59° |
| 2026-04-26 10:57 | -33.93705 | 151.18057 | 29 ft | 11 kts | 352° |
| 2026-04-26 10:57 | -33.93651 | 151.18050 | 29 ft | 4 kts | 354° |
| 2026-04-26 10:58 | -33.93640 | 151.18025 | 29 ft | 4 kts | 272° |
| 2026-04-26 10:58 | -33.93637 | 151.17996 | 29 ft | 3 kts | 279° |
| 2026-04-26 10:58 | -33.93636 | 151.17989 | 29 ft | 0 kts | 280° |